Tuesday, June 19, 2018, 12:49 AM EDT
Back to Local

KNYC, New York City Central Park

Location: New York, NY, United States Lat: 40.783
Local Time: 12:49 AM EDT ( 4:49 GMT) Lon: -73.967
Time Zone: US/Eastern Elev: 157 ft

Show me the last for .
Show Decoded

2018-06-18 23:51 METAR KNYC 190351Z AUTO 25006KT 10SM CLR 25/23 A2981 RMK AO2 SLP084 T02500228 $
                 =
2018-06-18 22:51 METAR KNYC 190251Z AUTO VRB06KT 9SM CLR 24/23 A2984 RMK AO2 SLP094 60008
                 T02390228 58005 $ =
2018-06-18 21:51 METAR KNYC 190151Z AUTO VRB05KT 7SM CLR 24/23 A2985 RMK AO2 RAE13 SLP098 P0005
                 T02440233 $ =
2018-06-18 21:30 METAR KNYC 190130Z AUTO VRB06KT 8SM FEW007 24/23 A2985 RMK AO2 RAE13 P0005
                 T02440228 $ =
2018-06-18 21:02 METAR KNYC 190102Z AUTO VRB03KT 3SM -RA BR SCT039 BKN070 OVC100 24/23 A2984 RMK
                 AO2 P0005 T02440233 $ =
2018-06-18 20:51 METAR KNYC 190051Z AUTO 26007G17KT 200V290 1 3/4SM +RA BR FEW040 SCT050 BKN070
                 25/23 A2985 RMK AO2 RAB36 SLP098 P0003 T02500228 $ =
2018-06-18 20:49 METAR KNYC 190049Z AUTO 2SM -RA BR FEW040 SCT055 BKN070 25/23 A2985 RMK AO2 VIS
                 1V5 RAB36 P0003 $ =
2018-06-18 19:51 METAR KNYC 182351Z AUTO VRB05KT 7SM FEW047 31/21 A2980 RMK AO2 SLP082 T03060211
                 10328 20306 56021 $ =
2018-06-18 18:51 METAR KNYC 182251Z AUTO VRB06KT 7SM BKN050 31/21 A2981 RMK AO2 SLP083 T03110211
                 $ =
2018-06-18 17:51 METAR KNYC 182151Z AUTO VRB04KT 8SM FEW050 SCT070 32/22 A2983 RMK AO2 SLP092
                 T03170222 $ =
2018-06-18 16:51 METAR KNYC 182051Z AUTO VRB05KT 8SM BKN055 32/21 A2986 RMK AO2 SLP103 T03220211
                 56026 $ =
2018-06-18 15:51 METAR KNYC 181951Z AUTO VRB05KT 8SM FEW055 31/22 A2988 RMK AO2 SLP108 T03110217
                 $ =
2018-06-18 14:51 METAR KNYC 181851Z AUTO 8SM FEW065 32/22 A2991 RMK AO2 SLP119 T03220217 $ =
2018-06-18 13:51 METAR KNYC 181751Z AUTO 24003KT 8SM BKN050 31/21 A2994 RMK AO2 SLP129 T03110206
                 10322 20239 58022 $ =
2018-06-18 12:51 METAR KNYC 181651Z AUTO VRB05KT 8SM CLR 32/21 A2997 RMK AO2 SLP140 T03220211 $ =
2018-06-18 11:51 METAR KNYC 181551Z AUTO VRB04KT 8SM CLR 31/21 A2999 RMK AO2 SLP144 T03110206 $ =
2018-06-18 10:51 METAR KNYC 181451Z AUTO 22004KT 8SM CLR 29/20 A3001 RMK AO2 SLP152 T02890200
                 58016 $ =
2018-06-18 09:51 METAR KNYC 181351Z AUTO VRB03KT 9SM CLR 27/19 A3003 RMK AO2 SLP157 T02720194 $ =
2018-06-18 08:51 METAR KNYC 181251Z AUTO 25006KT 9SM CLR 25/19 A3004 RMK AO2 SLP164 T02500194 $ =
2018-06-18 07:51 METAR KNYC 181151Z AUTO VRB03KT 9SM CLR 24/18 A3006 RMK AO2 SLP168 T02390183
                 10239 20228 58003 $ =
2018-06-18 06:51 METAR KNYC 181051Z AUTO 24005KT 10SM CLR 23/18 A3006 RMK AO2 SLP168 T02280183 $
                 =
2018-06-18 05:51 METAR KNYC 180951Z AUTO 24004KT 10SM CLR 23/18 A3007 RMK AO2 SLP172 T02280178 $
                 =
2018-06-18 04:51 METAR KNYC 180851Z AUTO 24004KT 10SM CLR 23/17 A3007 RMK AO2 SLP172 T02280172
                 56007 $ =
2018-06-18 03:51 METAR KNYC 180751Z AUTO 25006KT 10SM CLR 23/17 A3007 RMK AO2 SLP172 T02330167 $
                 =
2018-06-18 02:51 METAR KNYC 180651Z AUTO VRB03KT 10SM CLR 23/17 A3008 RMK AO2 SLP176 T02330167 $
                 =
2018-06-18 01:51 METAR KNYC 180551Z AUTO VRB05KT 10SM CLR 23/16 A3009 RMK AO2 SLP178 T02330161
                 10267 20233 50001 $ =
2018-06-18 00:51 METAR KNYC 180451Z AUTO VRB03KT 10SM CLR 24/15 A3009 RMK AO2 SLP180 T02390150
                 403280189 $ =

Support USWX by starting your Amazon purchase here.